createdAt,value
2022-09-27T00:01:02.831Z,62.50
2022-09-27T00:03:30.536Z,62.90
2022-09-27T00:06:08.119Z,62.80
2022-09-27T00:08:36.900Z,62.70
2022-09-27T00:11:34.279Z,62.80
2022-09-27T00:14:02.027Z,62.70
2022-09-27T00:16:31.630Z,62.80
2022-09-27T00:19:00.346Z,62.70
2022-09-27T00:21:28.388Z,62.60
2022-09-27T00:23:55.432Z,63.00
2022-09-27T00:26:22.667Z,62.70
2022-09-27T00:28:49.713Z,63.10
2022-09-27T00:31:25.891Z,62.50
2022-09-27T00:33:53.870Z,62.80
2022-09-27T00:36:22.309Z,63.00
2022-09-27T00:38:49.765Z,62.70
2022-09-27T00:41:23.942Z,62.70
2022-09-27T00:43:52.646Z,62.70
2022-09-27T00:46:28.185Z,62.20
2022-09-27T00:49:26.035Z,62.70
2022-09-27T00:51:57.171Z,62.50
2022-09-27T00:54:26.430Z,62.10
2022-09-27T00:56:53.938Z,62.60
2022-09-27T00:59:26.812Z,62.20
2022-09-27T01:01:53.747Z,62.80
2022-09-27T01:04:24.450Z,63.00
2022-09-27T01:06:52.987Z,62.50
2022-09-27T01:09:21.377Z,62.30
2022-09-27T01:12:25.688Z,62.50
2022-09-27T01:15:08.248Z,62.10
2022-09-27T01:17:38.519Z,62.30
2022-09-27T01:20:41.149Z,62.30
2022-09-27T01:23:29.129Z,62.20
2022-09-27T01:26:12.248Z,62.10
2022-09-27T01:29:03.398Z,62.30
2022-09-27T01:31:42.942Z,62.10
2022-09-27T01:34:29.485Z,62.50
2022-09-27T01:37:30.059Z,62.30
2022-09-27T01:40:35.644Z,62.40
2022-09-27T01:43:21.315Z,62.40
2022-09-27T01:45:57.274Z,62.80
2022-09-27T01:48:54.904Z,62.20
2022-09-27T01:51:38.917Z,62.40
2022-09-27T01:54:08.970Z,62.30
2022-09-27T01:57:00.198Z,62.50
2022-09-27T01:59:42.747Z,62.50
2022-09-27T02:02:32.328Z,62.50
2022-09-27T02:05:19.606Z,62.50
2022-09-27T02:07:59.696Z,62.50
2022-09-27T02:10:33.880Z,62.30
2022-09-27T02:13:15.235Z,62.70
2022-09-27T02:16:10.900Z,62.70
2022-09-27T02:19:04.860Z,62.50
2022-09-27T02:21:45.123Z,62.60
2022-09-27T02:24:16.980Z,62.50
2022-09-27T02:26:48.024Z,62.70
2022-09-27T02:29:21.071Z,62.50
2022-09-27T02:31:52.131Z,62.40
2022-09-27T02:34:23.546Z,62.60
2022-09-27T02:36:53.420Z,62.70
2022-09-27T02:39:21.358Z,62.60
2022-09-27T02:41:58.321Z,62.70
2022-09-27T02:44:26.300Z,63.50
2022-09-27T02:46:59.293Z,62.70
2022-09-27T02:49:57.007Z,62.50
2022-09-27T02:52:54.549Z,62.40
2022-09-27T02:55:49.995Z,62.30
2022-09-27T02:58:55.048Z,62.50
2022-09-27T03:01:48.479Z,62.50
2022-09-27T03:04:52.350Z,62.60
2022-09-27T03:07:19.964Z,62.60
2022-09-27T03:09:49.708Z,62.80
2022-09-27T03:12:22.649Z,62.60
2022-09-27T03:14:49.942Z,62.80
2022-09-27T03:17:36.987Z,62.80
2022-09-27T03:20:22.380Z,62.70
2022-09-27T03:23:15.414Z,63.40
2022-09-27T03:25:42.681Z,62.60
2022-09-27T03:28:13.075Z,62.70
2022-09-27T03:30:44.704Z,62.60
2022-09-27T03:33:14.075Z,62.70
2022-09-27T03:36:00.054Z,62.60
2022-09-27T03:38:27.112Z,62.40
2022-09-27T03:40:54.148Z,62.50
2022-09-27T03:43:21.073Z,62.70
2022-09-27T03:45:48.039Z,63.00
2022-09-27T03:48:15.007Z,62.60
2022-09-27T03:50:41.939Z,62.80
2022-09-27T03:53:09.323Z,62.60
2022-09-27T03:55:36.194Z,62.60
2022-09-27T03:58:03.228Z,62.70
2022-09-27T04:00:32.694Z,62.60
2022-09-27T04:03:00.341Z,62.70
2022-09-27T04:05:28.863Z,62.40
2022-09-27T04:08:07.907Z,62.80
2022-09-27T04:10:34.852Z,62.80
2022-09-27T04:13:01.674Z,62.80
2022-09-27T04:15:33.231Z,62.40
2022-09-27T04:18:38.699Z,62.40
2022-09-27T04:21:24.233Z,62.60
2022-09-27T04:23:52.823Z,62.60
2022-09-27T04:26:23.208Z,62.50
2022-09-27T04:28:54.901Z,62.60
2022-09-27T04:31:22.955Z,62.70
2022-09-27T04:34:06.154Z,62.70
2022-09-27T04:36:35.421Z,62.70
2022-09-27T04:39:12.044Z,63.50
2022-09-27T04:41:42.164Z,62.40
2022-09-27T04:44:09.081Z,63.00
2022-09-27T04:46:36.023Z,62.80
2022-09-27T04:49:03.479Z,63.00
2022-09-27T04:51:32.550Z,63.40
2022-09-27T04:54:00.624Z,63.60
2022-09-27T04:56:30.603Z,62.70
2022-09-27T04:58:58.654Z,62.70
2022-09-27T05:01:25.529Z,63.00
2022-09-27T05:04:27.959Z,62.60
2022-09-27T05:06:57.348Z,63.00
2022-09-27T05:09:40.752Z,62.60
2022-09-27T05:12:08.843Z,62.50
2022-09-27T05:14:55.688Z,62.40
2022-09-27T05:17:54.334Z,62.40
2022-09-27T05:20:25.464Z,62.40
2022-09-27T05:22:55.874Z,62.30
2022-09-27T05:25:22.892Z,62.50
2022-09-27T05:27:50.934Z,62.40
2022-09-27T05:30:19.564Z,62.20
2022-09-27T05:32:56.094Z,62.10
2022-09-27T05:35:26.360Z,62.40
2022-09-27T05:37:56.639Z,62.90
2022-09-27T05:40:42.310Z,62.70
2022-09-27T05:43:11.328Z,62.60
2022-09-27T05:45:38.428Z,62.60
2022-09-27T05:48:06.640Z,62.60
2022-09-27T05:50:39.406Z,61.90
2022-09-27T05:53:06.788Z,62.60
2022-09-27T05:55:33.657Z,62.60
2022-09-27T05:58:08.651Z,62.50
2022-09-27T06:00:44.665Z,62.40
2022-09-27T06:03:41.074Z,63.40
2022-09-27T06:06:37.518Z,62.40
2022-09-27T06:09:05.555Z,62.40
2022-09-27T06:11:32.549Z,62.40
2022-09-27T06:13:59.959Z,62.20
2022-09-27T06:16:28.160Z,62.20
2022-09-27T06:18:55.180Z,62.30
2022-09-27T06:21:22.722Z,62.30
2022-09-27T06:23:56.373Z,62.10
2022-09-27T06:26:32.384Z,61.90
2022-09-27T06:29:11.686Z,61.80
2022-09-27T06:31:43.991Z,61.90
2022-09-27T06:34:20.376Z,61.80
2022-09-27T06:36:51.513Z,62.00
2022-09-27T06:39:19.842Z,62.10
2022-09-27T06:42:02.484Z,62.00
2022-09-27T06:44:50.397Z,61.80
2022-09-27T06:47:43.603Z,62.90
2022-09-27T06:50:38.488Z,62.50
2022-09-27T06:53:08.085Z,62.30
2022-09-27T06:55:35.190Z,62.60
2022-09-27T06:58:20.804Z,62.00
2022-09-27T07:01:07.708Z,62.70
2022-09-27T07:03:53.217Z,61.50
2022-09-27T07:06:39.802Z,61.90
2022-09-27T07:09:19.568Z,61.00
2022-09-27T07:11:46.468Z,62.10
2022-09-27T07:14:14.081Z,62.30
2022-09-27T07:16:41.053Z,62.10
2022-09-27T07:19:09.055Z,61.90
2022-09-27T07:21:37.191Z,62.50
2022-09-27T07:24:05.289Z,62.30
2022-09-27T07:26:32.981Z,62.40
2022-09-27T07:29:00.771Z,62.10
2022-09-27T07:31:30.132Z,62.60
2022-09-27T07:33:57.087Z,62.70
2022-09-27T07:36:24.383Z,62.30
2022-09-27T07:38:51.344Z,62.50
2022-09-27T07:41:19.670Z,62.50
2022-09-27T07:43:46.600Z,62.60
2022-09-27T07:46:14.852Z,63.10
2022-09-27T07:48:56.035Z,62.90
2022-09-27T07:51:36.352Z,63.50
2022-09-27T07:54:08.892Z,63.10
2022-09-27T07:56:49.012Z,62.70
2022-09-27T07:59:18.961Z,62.50
2022-09-27T08:01:46.531Z,62.50
2022-09-27T08:04:13.371Z,62.30
2022-09-27T08:06:42.177Z,62.60
2022-09-27T08:09:12.438Z,63.00
2022-09-27T08:11:40.932Z,63.20
2022-09-27T08:14:10.619Z,63.10
2022-09-27T08:16:39.625Z,63.10
2022-09-27T08:19:17.107Z,63.20
2022-09-27T08:22:02.641Z,62.50
2022-09-27T08:24:50.059Z,62.80
2022-09-27T08:27:36.925Z,62.90
2022-09-27T08:30:16.942Z,62.70
2022-09-27T08:32:45.197Z,62.50
2022-09-27T08:35:15.365Z,62.50
2022-09-27T08:37:42.310Z,62.00
2022-09-27T08:40:17.615Z,62.80
2022-09-27T08:42:58.505Z,62.80
2022-09-27T08:45:32.792Z,62.50
2022-09-27T08:48:03.644Z,63.10
2022-09-27T08:50:39.530Z,62.90
2022-09-27T08:53:14.498Z,63.40
2022-09-27T08:55:48.076Z,62.70
2022-09-27T08:58:28.603Z,62.50
2022-09-27T09:01:03.217Z,62.00
2022-09-27T09:03:39.059Z,62.10
2022-09-27T09:06:13.432Z,61.80
2022-09-27T09:09:11.877Z,62.20
2022-09-27T09:12:11.288Z,61.90
2022-09-27T09:14:58.351Z,62.40
2022-09-27T09:17:36.883Z,62.50
2022-09-27T09:20:58.493Z,62.30
2022-09-27T09:23:49.256Z,62.30
2022-09-27T09:26:29.267Z,62.80
2022-09-27T09:29:17.076Z,62.90
2022-09-27T09:32:35.188Z,62.70
2022-09-27T09:35:15.050Z,63.10
2022-09-27T09:37:47.255Z,63.00
2022-09-27T09:40:37.309Z,62.80
2022-09-27T09:43:15.730Z,62.60
2022-09-27T09:45:47.225Z,63.20
2022-09-27T09:48:34.653Z,63.10
2022-09-27T09:51:07.713Z,62.70
2022-09-27T09:53:59.794Z,62.90
2022-09-27T09:56:35.635Z,62.80
2022-09-27T09:59:11.651Z,63.10
2022-09-27T10:01:48.070Z,63.10
2022-09-27T10:04:20.145Z,62.80
2022-09-27T10:06:48.465Z,63.10
2022-09-27T10:09:17.795Z,63.20
2022-09-27T10:12:04.783Z,63.40
2022-09-27T10:14:33.618Z,63.50
2022-09-27T10:17:11.171Z,63.30
2022-09-27T10:19:39.743Z,63.00
2022-09-27T10:22:32.691Z,62.70
2022-09-27T10:25:08.277Z,62.60
2022-09-27T10:27:56.073Z,62.70
2022-09-27T10:30:33.922Z,62.90
2022-09-27T10:33:20.011Z,62.70
2022-09-27T10:36:03.812Z,62.90
2022-09-27T10:38:37.265Z,63.00
2022-09-27T10:41:37.363Z,63.00
2022-09-27T10:44:18.009Z,62.10
2022-09-27T10:46:50.811Z,62.10
2022-09-27T10:49:41.400Z,62.40
2022-09-27T10:52:26.906Z,63.20
2022-09-27T10:55:06.994Z,62.50
2022-09-27T10:57:34.765Z,61.80
2022-09-27T11:00:19.509Z,61.60
2022-09-27T11:02:56.588Z,62.00
2022-09-27T11:05:28.003Z,61.10
2022-09-27T11:07:57.464Z,61.90
2022-09-27T11:10:39.476Z,61.90
2022-09-27T11:13:08.843Z,59.80
2022-09-27T11:16:11.981Z,61.70
2022-09-27T11:18:52.646Z,59.80
2022-09-27T11:21:40.886Z,60.90
2022-09-27T11:24:10.957Z,60.90
2022-09-27T11:26:50.491Z,59.60
2022-09-27T11:29:27.942Z,60.30
2022-09-27T11:32:26.350Z,60.10
2022-09-27T11:35:38.155Z,59.50
2022-09-27T11:38:52.220Z,60.20
2022-09-27T11:41:50.437Z,59.90
2022-09-27T11:44:39.673Z,58.50
2022-09-27T11:47:14.166Z,56.80
2022-09-27T11:50:09.868Z,57.70
2022-09-27T11:52:52.261Z,59.30
2022-09-27T11:55:38.612Z,59.10
2022-09-27T11:58:43.450Z,58.60
2022-09-27T12:01:38.258Z,60.00
2022-09-27T12:04:29.147Z,60.60
2022-09-27T12:07:37.563Z,57.70
2022-09-27T12:10:11.708Z,59.30
2022-09-27T12:12:44.863Z,60.00
2022-09-27T12:15:20.064Z,60.30
2022-09-27T12:17:56.689Z,59.40
2022-09-27T12:20:36.053Z,59.30
2022-09-27T12:23:21.323Z,59.40
2022-09-27T12:26:23.987Z,59.30
2022-09-27T12:29:22.371Z,59.60
2022-09-27T12:32:21.171Z,59.50
2022-09-27T12:35:15.977Z,59.40
2022-09-27T12:37:49.852Z,59.30
2022-09-27T12:40:27.942Z,58.60
2022-09-27T12:43:12.080Z,58.60
2022-09-27T12:46:30.639Z,59.20
2022-09-27T12:49:29.265Z,59.20
2022-09-27T12:52:01.299Z,59.40
2022-09-27T12:54:50.845Z,59.20
2022-09-27T12:58:07.253Z,59.50
2022-09-27T13:00:47.306Z,59.40
2022-09-27T13:03:32.384Z,59.50
2022-09-27T13:06:25.741Z,60.60
2022-09-27T13:09:10.476Z,60.70
2022-09-27T13:11:58.007Z,60.20
2022-09-27T13:14:27.283Z,60.00
2022-09-27T13:16:54.349Z,60.30
2022-09-27T13:19:43.098Z,60.90
2022-09-27T13:22:27.930Z,61.00
2022-09-27T13:25:43.443Z,60.80
2022-09-27T13:28:33.992Z,60.70
2022-09-27T13:31:16.352Z,60.70
2022-09-27T13:33:50.339Z,61.00
2022-09-27T13:36:28.361Z,60.60
2022-09-27T13:39:11.354Z,60.70
2022-09-27T13:42:10.195Z,61.00
2022-09-27T13:44:48.995Z,60.10
2022-09-27T13:47:36.227Z,61.50
2022-09-27T13:50:29.271Z,61.00
2022-09-27T13:53:04.355Z,60.00
2022-09-27T13:55:48.040Z,60.50
2022-09-27T13:58:50.542Z,61.10
2022-09-27T14:01:59.835Z,59.60
2022-09-27T14:04:41.680Z,59.70
2022-09-27T14:07:14.287Z,59.80
2022-09-27T14:09:46.998Z,60.10
2022-09-27T14:12:31.438Z,60.50
2022-09-27T14:15:01.484Z,59.80
2022-09-27T14:17:31.484Z,59.60
2022-09-27T14:19:59.267Z,59.30
2022-09-27T14:22:26.388Z,60.10
2022-09-27T14:24:59.689Z,59.90
2022-09-27T14:27:38.854Z,59.40
2022-09-27T14:30:30.831Z,59.40
2022-09-27T14:33:31.702Z,59.10
2022-09-27T14:36:48.342Z,59.30
2022-09-27T14:39:31.265Z,59.90
2022-09-27T14:42:02.630Z,59.10
2022-09-27T14:44:31.360Z,59.00
2022-09-27T14:47:24.840Z,59.10
2022-09-27T14:50:14.690Z,59.40
2022-09-27T14:52:41.530Z,59.70
2022-09-27T14:55:14.706Z,58.90
2022-09-27T14:57:53.768Z,60.20
2022-09-27T15:00:23.629Z,60.20
2022-09-27T15:02:55.593Z,59.90
2022-09-27T15:05:26.379Z,60.10
2022-09-27T15:07:55.879Z,59.70
2022-09-27T15:10:27.402Z,60.00
2022-09-27T15:12:59.920Z,60.30
2022-09-27T15:15:35.209Z,60.20
2022-09-27T15:18:03.524Z,60.20
2022-09-27T15:20:35.251Z,60.20
2022-09-27T15:23:06.028Z,60.20
2022-09-27T15:25:43.827Z,60.50
2022-09-27T15:28:19.244Z,60.30
2022-09-27T15:30:58.747Z,60.20
2022-09-27T15:33:34.672Z,60.70
2022-09-27T15:36:07.347Z,60.60
2022-09-27T15:38:34.170Z,60.30
2022-09-27T15:41:03.771Z,60.30
2022-09-27T15:43:46.827Z,60.90
2022-09-27T15:46:22.709Z,60.70
2022-09-27T15:49:21.303Z,60.20
2022-09-27T15:51:53.643Z,59.90
2022-09-27T15:54:22.135Z,60.00
2022-09-27T15:56:55.060Z,59.80
2022-09-27T15:59:28.611Z,60.40
2022-09-27T16:01:58.576Z,59.80
2022-09-27T16:04:27.638Z,59.90
2022-09-27T16:06:55.317Z,60.70
2022-09-27T16:09:22.564Z,59.80
2022-09-27T16:11:50.588Z,59.80
2022-09-27T16:14:19.347Z,59.70
2022-09-27T16:16:51.853Z,60.10
2022-09-27T16:19:19.517Z,60.10
2022-09-27T16:21:47.560Z,60.20
2022-09-27T16:24:15.113Z,60.00
2022-09-27T16:26:41.927Z,60.00
2022-09-27T16:29:13.972Z,60.10
2022-09-27T16:31:42.059Z,60.20
2022-09-27T16:34:10.223Z,60.20
2022-09-27T16:36:37.685Z,60.50
2022-09-27T16:39:06.225Z,60.60
2022-09-27T16:41:33.734Z,61.10
2022-09-27T16:44:07.565Z,61.10
2022-09-27T16:46:35.192Z,61.20
2022-09-27T16:49:02.511Z,61.20
2022-09-27T16:51:47.762Z,61.70
2022-09-27T16:54:15.835Z,62.00
2022-09-27T16:56:42.912Z,62.00
2022-09-27T16:59:09.830Z,62.10
2022-09-27T17:01:36.791Z,61.70
2022-09-27T17:04:03.746Z,61.70
2022-09-27T17:06:32.632Z,61.60
2022-09-27T17:09:06.675Z,61.90
2022-09-27T17:11:34.015Z,61.80
2022-09-27T17:14:00.843Z,62.10
2022-09-27T17:16:31.035Z,62.20
2022-09-27T17:18:58.125Z,62.30
2022-09-27T17:21:25.108Z,62.30
2022-09-27T17:23:52.062Z,62.20
2022-09-27T17:26:23.554Z,62.30
2022-09-27T17:28:50.611Z,61.80
2022-09-27T17:31:22.923Z,62.60
2022-09-27T17:33:56.784Z,63.20
2022-09-27T17:36:30.079Z,63.80
2022-09-27T17:38:58.737Z,64.00
2022-09-27T17:41:26.979Z,64.40
2022-09-27T17:43:56.531Z,64.60
2022-09-27T17:46:29.668Z,64.70
2022-09-27T17:49:17.906Z,64.60
2022-09-27T17:51:48.682Z,65.00
2022-09-27T17:54:16.813Z,65.50
2022-09-27T17:56:44.354Z,65.50
2022-09-27T17:59:12.835Z,66.10
2022-09-27T18:01:40.118Z,65.50
2022-09-27T18:04:11.649Z,64.80
2022-09-27T18:06:44.237Z,65.00
2022-09-27T18:09:13.428Z,64.20
2022-09-27T18:11:40.905Z,63.90
2022-09-27T18:14:10.223Z,63.90
2022-09-27T18:16:41.119Z,64.50
2022-09-27T18:19:12.297Z,63.70
2022-09-27T18:21:39.628Z,63.10
2022-09-27T18:24:07.286Z,62.70
2022-09-27T18:26:38.373Z,62.80
2022-09-27T18:29:14.160Z,62.90
2022-09-27T18:34:26.749Z,62.70
2022-09-27T18:36:53.578Z,62.70
2022-09-27T18:39:20.888Z,62.80
2022-09-27T18:41:51.034Z,62.60
2022-09-27T18:44:18.999Z,62.70
2022-09-27T18:46:46.308Z,62.20
2022-09-27T18:49:14.463Z,62.30
2022-09-27T18:51:44.742Z,62.30
2022-09-27T18:54:22.650Z,62.30
2022-09-27T18:56:52.186Z,62.30
2022-09-27T18:59:20.862Z,62.40
2022-09-27T19:01:47.918Z,62.30
2022-09-27T19:04:24.229Z,61.90
2022-09-27T19:06:52.938Z,61.70
2022-09-27T19:09:19.809Z,61.90
2022-09-27T19:11:46.919Z,62.10
2022-09-27T19:14:19.627Z,62.40
2022-09-27T19:16:48.159Z,62.50
2022-09-27T19:19:19.784Z,62.50
2022-09-27T19:21:47.450Z,62.90
2022-09-27T19:24:15.711Z,62.50
2022-09-27T19:26:43.307Z,62.30
2022-09-27T19:29:10.426Z,62.10
2022-09-27T19:31:37.499Z,62.70
2022-09-27T19:34:04.728Z,62.00
2022-09-27T19:36:34.851Z,62.10
2022-09-27T19:39:02.334Z,62.00
2022-09-27T19:41:29.648Z,61.90
2022-09-27T19:43:57.339Z,61.90
2022-09-27T19:46:25.102Z,61.80
2022-09-27T19:48:53.986Z,61.80
2022-09-27T19:51:23.140Z,61.90
2022-09-27T19:53:50.959Z,61.80
2022-09-27T19:56:18.730Z,61.80
2022-09-27T19:58:46.243Z,61.60
2022-09-27T20:01:14.533Z,61.80
2022-09-27T20:03:43.497Z,62.10
2022-09-27T20:06:13.457Z,62.70
2022-09-27T20:08:42.323Z,62.10
2022-09-27T20:11:14.611Z,61.60
2022-09-27T20:13:42.030Z,61.50
2022-09-27T20:16:10.522Z,61.40
2022-09-27T20:18:43.239Z,61.20
2022-09-27T20:21:10.434Z,61.20
2022-09-27T20:23:37.423Z,61.30
2022-09-27T20:26:08.081Z,61.00
2022-09-27T20:28:36.274Z,61.20
2022-09-27T20:31:04.711Z,61.10
2022-09-27T20:33:41.119Z,61.10
2022-09-27T20:36:28.470Z,61.30
2022-09-27T20:39:02.187Z,61.40
2022-09-27T20:41:31.538Z,61.20
2022-09-27T20:44:00.575Z,61.40
2022-09-27T20:46:27.716Z,61.50
2022-09-27T20:48:59.966Z,61.70
2022-09-27T20:51:27.819Z,61.70
2022-09-27T20:53:55.276Z,61.50
2022-09-27T20:56:25.387Z,61.60
2022-09-27T20:58:54.879Z,61.70
2022-09-27T21:01:23.088Z,61.60
2022-09-27T21:03:54.797Z,61.50
2022-09-27T21:06:24.717Z,61.80
2022-09-27T21:08:51.616Z,61.60
2022-09-27T21:11:19.356Z,61.80
2022-09-27T21:13:47.238Z,61.70
2022-09-27T21:16:17.250Z,61.70
2022-09-27T21:18:44.521Z,61.60
2022-09-27T21:21:13.331Z,62.10
2022-09-27T21:23:44.770Z,61.90
2022-09-27T21:26:19.918Z,61.90
2022-09-27T21:28:52.218Z,61.80
2022-09-27T21:31:25.153Z,61.90
2022-09-27T21:33:54.599Z,61.80
2022-09-27T21:36:23.443Z,61.70
2022-09-27T21:38:50.982Z,61.70
2022-09-27T21:41:18.394Z,61.90
2022-09-27T21:43:47.791Z,62.00
2022-09-27T21:46:26.201Z,61.80
2022-09-27T21:48:56.045Z,61.90
2022-09-27T21:51:25.521Z,61.60
2022-09-27T21:53:58.428Z,61.60
2022-09-27T21:56:27.370Z,61.70
2022-09-27T21:58:54.587Z,61.50
2022-09-27T22:01:24.122Z,61.50
2022-09-27T22:03:52.275Z,61.50
2022-09-27T22:06:21.411Z,61.30
2022-09-27T22:08:49.201Z,61.50
2022-09-27T22:11:18.880Z,61.50
2022-09-27T22:13:46.254Z,61.30
2022-09-27T22:16:16.401Z,61.20
2022-09-27T22:18:45.143Z,61.30
2022-09-27T22:21:17.626Z,61.40
2022-09-27T22:23:45.568Z,61.30
2022-09-27T22:26:18.016Z,61.10
2022-09-27T22:28:46.222Z,61.40
2022-09-27T22:31:15.179Z,61.40
2022-09-27T22:33:43.036Z,61.20
2022-09-27T22:36:09.917Z,61.20
2022-09-27T22:38:36.779Z,60.90
2022-09-27T22:41:04.487Z,61.00
2022-09-27T22:43:31.935Z,60.90
2022-09-27T22:46:02.789Z,61.10
2022-09-27T22:48:30.834Z,61.00
2022-09-27T22:50:59.251Z,61.00
2022-09-27T22:53:27.766Z,61.00
2022-09-27T22:56:03.109Z,61.20
2022-09-27T22:58:31.563Z,61.10
2022-09-27T23:00:58.443Z,61.20
2022-09-27T23:03:26.210Z,61.00
2022-09-27T23:05:53.102Z,61.10
2022-09-27T23:08:19.990Z,61.80
2022-09-27T23:10:46.823Z,60.90
2022-09-27T23:13:13.604Z,61.00
2022-09-27T23:15:40.438Z,61.20
2022-09-27T23:18:07.359Z,61.20
2022-09-27T23:20:34.534Z,60.90
2022-09-27T23:23:01.803Z,62.00
2022-09-27T23:25:28.802Z,61.10
2022-09-27T23:27:55.654Z,61.10
2022-09-27T23:30:24.542Z,61.20
2022-09-27T23:32:57.932Z,61.10
2022-09-27T23:35:26.704Z,61.20
2022-09-27T23:37:54.421Z,61.20
2022-09-27T23:40:21.370Z,60.90
2022-09-27T23:42:48.284Z,61.00
2022-09-27T23:45:16.386Z,61.10
2022-09-27T23:47:43.313Z,61.00
2022-09-27T23:50:10.439Z,61.70
2022-09-27T23:52:37.384Z,61.10
2022-09-27T23:55:04.558Z,61.00
2022-09-27T23:57:31.588Z,61.10
2022-09-27T23:59:58.460Z,61.80
